Time,TemperatureF,DewpointF,PressureIn,WindDirection,WindDirectionDegrees,WindSpeedMPH,WindSpeedGustMPH,Humidity,HourlyPrecipIn,Conditions,Clouds,dailyrainin,SoftwareType,DateUTC
2013-11-30 00:01:00,30.1,21.8,30.62,ENE,66,0.0,0.0,71,0.00,,,0.00,WUHU216DAVISVP2,2013-11-30 05:01:00,
2013-11-30 00:02:00,30.0,22.1,30.62,ENE,66,0.0,0.0,72,0.00,,,0.00,WUHU216DAVISVP2,2013-11-30 05:02:00,
2013-11-30 00:07:00,29.7,21.8,30.62,ENE,66,0.0,0.0,72,0.00,,,0.00,WUHU216DAVISVP2,2013-11-30 05:07:00,
2013-11-30 00:12:00,29.5,21.6,30.62,ENE,66,0.0,0.0,72,0.00,,,0.00,WUHU216DAVISVP2,2013-11-30 05:12:00,
2013-11-30 00:17:00,29.3,21.4,30.62,ENE,66,0.0,0.0,72,0.00,,,0.00,WUHU216DAVISVP2,2013-11-30 05:17:00,
2013-11-30 00:22:00,29.1,21.3,30.62,ENE,66,0.0,0.0,72,0.00,,,0.00,WUHU216DAVISVP2,2013-11-30 05:22:00,
2013-11-30 00:27:00,29.0,21.4,30.62,ENE,66,0.0,0.0,73,0.00,,,0.00,WUHU216DAVISVP2,2013-11-30 05:27:00,
2013-11-30 00:32:00,28.8,21.3,30.62,ENE,66,0.0,0.0,73,0.00,,,0.00,WUHU216DAVISVP2,2013-11-30 05:32:00,
2013-11-30 00:37:00,28.7,21.1,30.62,ENE,66,0.0,0.0,73,0.00,,,0.00,WUHU216DAVISVP2,2013-11-30 05:37:00,
2013-11-30 00:42:00,28.5,21.0,30.62,ENE,66,0.0,0.0,73,0.00,,,0.00,WUHU216DAVISVP2,2013-11-30 05:42:00,
2013-11-30 00:47:00,28.2,20.7,30.62,ENE,66,0.0,0.0,73,0.00,,,0.00,WUHU216DAVISVP2,2013-11-30 05:47:00,
2013-11-30 00:52:00,28.1,20.9,30.62,ENE,66,0.0,0.0,74,0.00,,,0.00,WUHU216DAVISVP2,2013-11-30 05:52:00,
2013-11-30 00:56:00,27.9,20.7,30.62,ENE,66,0.0,0.0,74,0.00,,,0.00,WUHU216DAVISVP2,2013-11-30 05:56:00,
2013-11-30 01:02:00,27.8,20.9,30.62,ENE,66,0.0,0.0,75,0.00,,,0.00,WUHU216DAVISVP2,2013-11-30 06:02:00,
2013-11-30 01:07:00,27.6,20.7,30.62,ENE,66,0.0,0.0,75,0.00,,,0.00,WUHU216DAVISVP2,2013-11-30 06:07:00,
2013-11-30 01:14:00,27.6,20.7,30.62,ENE,66,0.0,0.0,75,0.00,,,0.00,WUHU216DAVISVP2,2013-11-30 06:14:00,
2013-11-30 01:19:00,27.6,20.7,30.62,ENE,66,0.0,0.0,75,0.00,,,0.00,WUHU216DAVISVP2,2013-11-30 06:19:00,
2013-11-30 01:24:00,27.6,20.7,30.62,ENE,66,0.0,0.0,75,0.00,,,0.00,WUHU216DAVISVP2,2013-11-30 06:24:00,
2013-11-30 01:29:00,27.5,20.7,30.62,ENE,66,0.0,0.0,75,0.00,,,0.00,WUHU216DAVISVP2,2013-11-30 06:29:00,
2013-11-30 01:34:00,27.6,20.7,30.62,ENE,66,0.0,0.0,75,0.00,,,0.00,WUHU216DAVISVP2,2013-11-30 06:34:00,
2013-11-30 01:39:00,27.6,20.7,30.62,ENE,66,0.0,0.0,75,0.00,,,0.00,WUHU216DAVISVP2,2013-11-30 06:39:00,
2013-11-30 01:44:00,27.6,20.7,30.62,ENE,66,0.0,0.0,75,0.00,,,0.00,WUHU216DAVISVP2,2013-11-30 06:44:00,
2013-11-30 01:49:00,27.6,20.7,30.62,ENE,66,0.0,0.0,75,0.00,,,0.00,WUHU216DAVISVP2,2013-11-30 06:49:00,
2013-11-30 01:54:00,27.5,20.7,30.62,ENE,66,0.0,0.0,75,0.00,,,0.00,WUHU216DAVISVP2,2013-11-30 06:54:00,
2013-11-30 01:59:00,27.5,20.7,30.62,ENE,66,0.0,0.0,75,0.00,,,0.00,WUHU216DAVISVP2,2013-11-30 06:59:00,
2013-11-30 02:04:00,27.6,20.7,30.62,ENE,66,0.0,0.0,75,0.00,,,0.00,WUHU216DAVISVP2,2013-11-30 07:04:00,
2013-11-30 02:09:00,27.6,20.7,30.62,ENE,66,0.0,0.0,75,0.00,,,0.00,WUHU216DAVISVP2,2013-11-30 07:09:00,
2013-11-30 02:14:00,27.5,20.7,30.62,ENE,66,0.0,0.0,75,0.00,,,0.00,WUHU216DAVISVP2,2013-11-30 07:14:00,
2013-11-30 02:19:00,27.5,20.7,30.62,ENE,66,0.0,0.0,75,0.00,,,0.00,WUHU216DAVISVP2,2013-11-30 07:19:00,
2013-11-30 02:24:00,27.5,20.7,30.62,ENE,66,0.0,0.0,75,0.00,,,0.00,WUHU216DAVISVP2,2013-11-30 07:24:00,
2013-11-30 02:29:00,27.5,20.7,30.62,ENE,66,0.0,0.0,75,0.00,,,0.00,WUHU216DAVISVP2,2013-11-30 07:29:00,
2013-11-30 02:34:00,27.3,20.5,30.61,ENE,66,0.0,0.0,75,0.00,,,0.00,WUHU216DAVISVP2,2013-11-30 07:34:00,
2013-11-30 02:39:00,27.2,20.4,30.61,ENE,66,0.0,0.0,75,0.00,,,0.00,WUHU216DAVISVP2,2013-11-30 07:39:00,
2013-11-30 02:44:00,27.0,20.2,30.61,ENE,66,0.0,0.0,75,0.00,,,0.00,WUHU216DAVISVP2,2013-11-30 07:44:00,
2013-11-30 02:49:00,27.0,20.2,30.61,ENE,66,0.0,0.0,75,0.00,,,0.00,WUHU216DAVISVP2,2013-11-30 07:49:00,
2013-11-30 02:54:00,27.0,20.5,30.61,ENE,64,0.0,0.0,76,0.00,,,0.00,WUHU216DAVISVP2,2013-11-30 07:54:00,
2013-11-30 02:59:00,27.0,20.5,30.61,ENE,64,0.0,0.0,76,0.00,,,0.00,WUHU216DAVISVP2,2013-11-30 07:59:00,
2013-11-30 03:04:00,27.0,20.5,30.61,ENE,64,0.0,0.0,76,0.00,,,0.00,WUHU216DAVISVP2,2013-11-30 08:04:00,
2013-11-30 03:09:00,27.0,20.5,30.61,ENE,64,0.0,0.0,76,0.00,,,0.00,WUHU216DAVISVP2,2013-11-30 08:09:00,
2013-11-30 03:14:00,27.0,20.5,30.61,ENE,64,0.0,0.0,76,0.00,,,0.00,WUHU216DAVISVP2,2013-11-30 08:14:00,
2013-11-30 03:19:00,26.9,20.4,30.61,ENE,64,0.0,0.0,76,0.00,,,0.00,WUHU216DAVISVP2,2013-11-30 08:19:00,
2013-11-30 03:24:00,26.9,20.4,30.61,ENE,64,0.0,0.0,76,0.00,,,0.00,WUHU216DAVISVP2,2013-11-30 08:24:00,
2013-11-30 03:29:00,26.9,20.4,30.61,ENE,64,0.0,0.0,76,0.00,,,0.00,WUHU216DAVISVP2,2013-11-30 08:29:00,
2013-11-30 03:34:00,27.0,20.5,30.61,ENE,64,0.0,0.0,76,0.00,,,0.00,WUHU216DAVISVP2,2013-11-30 08:34:00,
2013-11-30 03:39:00,27.0,20.5,30.61,ENE,64,0.0,0.0,76,0.00,,,0.00,WUHU216DAVISVP2,2013-11-30 08:39:00,
2013-11-30 03:44:00,27.2,20.7,30.61,ENE,64,0.0,0.0,76,0.00,,,0.00,WUHU216DAVISVP2,2013-11-30 08:44:00,
2013-11-30 03:49:00,27.0,20.5,30.61,ENE,64,0.0,0.0,76,0.00,,,0.00,WUHU216DAVISVP2,2013-11-30 08:49:00,
2013-11-30 03:54:00,27.0,20.5,30.61,ENE,64,0.0,0.0,76,0.00,,,0.00,WUHU216DAVISVP2,2013-11-30 08:54:00,
2013-11-30 03:59:00,26.9,20.4,30.61,ENE,64,0.0,0.0,76,0.00,,,0.00,WUHU216DAVISVP2,2013-11-30 08:59:00,
2013-11-30 04:04:00,26.9,20.7,30.61,ENE,64,0.0,0.0,77,0.00,,,0.00,WUHU216DAVISVP2,2013-11-30 09:04:00,
2013-11-30 04:09:00,26.9,20.7,30.61,ENE,64,0.0,0.0,77,0.00,,,0.00,WUHU216DAVISVP2,2013-11-30 09:09:00,
2013-11-30 04:14:00,26.9,20.7,30.61,ENE,64,0.0,0.0,77,0.00,,,0.00,WUHU216DAVISVP2,2013-11-30 09:14:00,
2013-11-30 04:19:00,26.9,20.7,30.61,ENE,64,0.0,0.0,77,0.00,,,0.00,WUHU216DAVISVP2,2013-11-30 09:19:00,
2013-11-30 04:24:00,26.7,20.5,30.61,ENE,64,0.0,0.0,77,0.00,,,0.00,WUHU216DAVISVP2,2013-11-30 09:24:00,
2013-11-30 04:29:00,26.6,20.4,30.61,ENE,64,0.0,0.0,77,0.00,,,0.00,WUHU216DAVISVP2,2013-11-30 09:29:00,
2013-11-30 04:34:00,26.6,20.4,30.61,ENE,64,0.0,0.0,77,0.00,,,0.00,WUHU216DAVISVP2,2013-11-30 09:34:00,
2013-11-30 04:39:00,26.4,20.2,30.61,ENE,64,0.0,0.0,77,0.00,,,0.00,WUHU216DAVISVP2,2013-11-30 09:39:00,
2013-11-30 04:44:00,26.4,20.2,30.61,ENE,64,0.0,0.0,77,0.00,,,0.00,WUHU216DAVISVP2,2013-11-30 09:44:00,
2013-11-30 04:49:00,26.3,20.1,30.60,ENE,64,0.0,0.0,77,0.00,,,0.00,WUHU216DAVISVP2,2013-11-30 09:49:00,
2013-11-30 04:54:00,26.4,20.5,30.60,ENE,64,0.0,0.0,78,0.00,,,0.00,WUHU216DAVISVP2,2013-11-30 09:54:00,
2013-11-30 04:59:00,26.6,20.7,30.60,North,357,0.0,0.0,78,0.00,,,0.00,WUHU216DAVISVP2,2013-11-30 09:59:00,
2013-11-30 05:04:00,26.6,20.7,30.61,North,357,0.0,0.0,78,0.00,,,0.00,WUHU216DAVISVP2,2013-11-30 10:04:00,
2013-11-30 05:09:00,26.7,20.8,30.61,North,357,0.0,0.0,78,0.00,,,0.00,WUHU216DAVISVP2,2013-11-30 10:09:00,
2013-11-30 05:14:00,26.6,20.7,30.61,North,357,0.0,0.0,78,0.00,,,0.00,WUHU216DAVISVP2,2013-11-30 10:14:00,
2013-11-30 05:19:00,26.7,20.8,30.60,North,357,0.0,0.0,78,0.00,,,0.00,WUHU216DAVISVP2,2013-11-30 10:19:00,
2013-11-30 05:24:00,26.6,20.7,30.60,North,357,0.0,0.0,78,0.00,,,0.00,WUHU216DAVISVP2,2013-11-30 10:24:00,
2013-11-30 05:29:00,26.6,20.7,30.60,North,357,0.0,0.0,78,0.00,,,0.00,WUHU216DAVISVP2,2013-11-30 10:29:00,
2013-11-30 05:34:00,26.7,20.8,30.61,North,357,0.0,0.0,78,0.00,,,0.00,WUHU216DAVISVP2,2013-11-30 10:34:00,
2013-11-30 05:39:00,26.6,20.7,30.61,North,357,0.0,0.0,78,0.00,,,0.00,WUHU216DAVISVP2,2013-11-30 10:39:00,
2013-11-30 05:45:00,26.6,20.7,30.61,North,357,0.0,0.0,78,0.00,,,0.00,WUHU216DAVISVP2,2013-11-30 10:45:00,
2013-11-30 05:50:00,26.6,20.7,30.61,North,357,0.0,0.0,78,0.00,,,0.00,WUHU216DAVISVP2,2013-11-30 10:50:00,
2013-11-30 05:55:00,26.4,20.5,30.61,North,357,0.0,0.0,78,0.00,,,0.00,WUHU216DAVISVP2,2013-11-30 10:55:00,
2013-11-30 06:00:00,26.4,20.5,30.61,North,357,0.0,0.0,78,0.00,,,0.00,WUHU216DAVISVP2,2013-11-30 11:00:00,
2013-11-30 06:05:00,26.3,20.4,30.62,North,357,0.0,0.0,78,0.00,,,0.00,WUHU216DAVISVP2,2013-11-30 11:05:00,
2013-11-30 06:10:00,26.3,20.4,30.62,North,357,0.0,0.0,78,0.00,,,0.00,WUHU216DAVISVP2,2013-11-30 11:10:00,
2013-11-30 06:15:00,26.1,20.2,30.62,North,357,0.0,0.0,78,0.00,,,0.00,WUHU216DAVISVP2,2013-11-30 11:15:00,
2013-11-30 06:20:00,26.0,20.1,30.62,North,357,0.0,0.0,78,0.00,,,0.00,WUHU216DAVISVP2,2013-11-30 11:20:00,
2013-11-30 06:25:00,26.0,20.1,30.62,North,357,0.0,0.0,78,0.00,,,0.00,WUHU216DAVISVP2,2013-11-30 11:25:00,
2013-11-30 06:30:00,26.0,20.1,30.62,North,357,0.0,0.0,78,0.00,,,0.00,WUHU216DAVISVP2,2013-11-30 11:30:00,
2013-11-30 06:35:00,26.0,20.1,30.62,North,357,0.0,0.0,78,0.00,,,0.00,WUHU216DAVISVP2,2013-11-30 11:35:00,
2013-11-30 06:40:00,26.0,20.1,30.62,North,357,0.0,0.0,78,0.00,,,0.00,WUHU216DAVISVP2,2013-11-30 11:40:00,
2013-11-30 06:45:00,26.0,20.1,30.62,North,357,0.0,0.0,78,0.00,,,0.00,WUHU216DAVISVP2,2013-11-30 11:45:00,
2013-11-30 06:50:00,25.8,20.2,30.63,North,357,0.0,0.0,79,0.00,,,0.00,WUHU216DAVISVP2,2013-11-30 11:50:00,
2013-11-30 06:55:00,25.8,20.2,30.63,North,357,0.0,0.0,79,0.00,,,0.00,WUHU216DAVISVP2,2013-11-30 11:55:00,
2013-11-30 07:00:00,25.8,20.2,30.63,North,357,0.0,0.0,79,0.00,,,0.00,WUHU216DAVISVP2,2013-11-30 12:00:00,
2013-11-30 07:05:00,25.7,20.1,30.63,North,357,0.0,0.0,79,0.00,,,0.00,WUHU216DAVISVP2,2013-11-30 12:05:00,
2013-11-30 07:10:00,25.7,20.1,30.63,North,357,0.0,0.0,79,0.00,,,0.00,WUHU216DAVISVP2,2013-11-30 12:10:00,
2013-11-30 07:15:00,25.7,20.1,30.63,North,357,0.0,0.0,79,0.00,,,0.00,WUHU216DAVISVP2,2013-11-30 12:15:00,
2013-11-30 07:21:00,25.8,20.2,30.63,North,357,0.0,0.0,79,0.00,,,0.00,WUHU216DAVISVP2,2013-11-30 12:21:00,
2013-11-30 07:26:00,25.8,20.2,30.63,North,357,0.0,0.0,79,0.00,,,0.00,WUHU216DAVISVP2,2013-11-30 12:26:00,
2013-11-30 07:31:00,26.1,20.5,30.63,North,357,0.0,0.0,79,0.00,,,0.00,WUHU216DAVISVP2,2013-11-30 12:31:00,
2013-11-30 07:36:00,26.3,21.0,30.63,North,357,0.0,0.0,80,0.00,,,0.00,WUHU216DAVISVP2,2013-11-30 12:36:00,
2013-11-30 07:41:00,26.6,21.3,30.63,North,354,0.0,0.0,80,0.00,,,0.00,WUHU216DAVISVP2,2013-11-30 12:41:00,
2013-11-30 07:46:00,26.7,21.4,30.63,North,354,0.0,0.0,80,0.00,,,0.00,WUHU216DAVISVP2,2013-11-30 12:46:00,
2013-11-30 07:51:00,27.2,21.9,30.64,North,356,0.0,0.0,80,0.00,,,0.00,WUHU216DAVISVP2,2013-11-30 12:51:00,
2013-11-30 07:56:00,27.5,22.1,30.64,North,350,0.0,0.0,80,0.00,,,0.00,WUHU216DAVISVP2,2013-11-30 12:56:00,
2013-11-30 08:01:00,27.8,22.4,30.64,North,352,0.0,0.0,80,0.00,,,0.00,WUHU216DAVISVP2,2013-11-30 13:01:00,
2013-11-30 08:06:00,27.8,22.4,30.63,North,352,0.0,0.0,80,0.00,,,0.00,WUHU216DAVISVP2,2013-11-30 13:06:00,
2013-11-30 08:11:00,28.2,22.8,30.63,North,352,0.0,0.0,80,0.00,,,0.00,WUHU216DAVISVP2,2013-11-30 13:11:00,
2013-11-30 08:16:00,28.5,23.1,30.63,North,352,0.0,0.0,80,0.00,,,0.00,WUHU216DAVISVP2,2013-11-30 13:16:00,
2013-11-30 08:21:00,29.0,23.6,30.64,North,353,0.0,0.0,80,0.00,,,0.00,WUHU216DAVISVP2,2013-11-30 13:21:00,
2013-11-30 08:26:00,29.3,23.6,30.64,North,0,0.0,0.0,79,0.00,,,0.00,WUHU216DAVISVP2,2013-11-30 13:26:00,
2013-11-30 08:31:00,29.5,23.8,30.64,NNE,25,0.0,0.0,79,0.00,,,0.00,WUHU216DAVISVP2,2013-11-30 13:31:00,
2013-11-30 08:36:00,29.8,24.1,30.64,North,359,0.0,0.0,79,0.00,,,0.00,WUHU216DAVISVP2,2013-11-30 13:36:00,
2013-11-30 08:41:00,30.1,24.4,30.64,North,357,0.0,0.0,79,0.00,,,0.00,WUHU216DAVISVP2,2013-11-30 13:41:00,
2013-11-30 08:46:00,30.6,24.9,30.64,North,0,0.0,0.0,79,0.00,,,0.00,WUHU216DAVISVP2,2013-11-30 13:46:00,
2013-11-30 08:51:00,30.9,24.9,30.64,ENE,62,0.0,0.0,78,0.00,,,0.00,WUHU216DAVISVP2,2013-11-30 13:51:00,
2013-11-30 08:56:00,31.3,25.3,30.64,NNE,16,0.0,0.0,78,0.00,,,0.00,WUHU216DAVISVP2,2013-11-30 13:56:00,
2013-11-30 09:01:00,31.5,25.5,30.64,NE,51,0.0,0.0,78,0.00,,,0.00,WUHU216DAVISVP2,2013-11-30 14:01:00,
2013-11-30 09:06:00,31.9,25.5,30.63,NE,37,0.0,0.0,77,0.00,,,0.00,WUHU216DAVISVP2,2013-11-30 14:06:00,
2013-11-30 09:11:00,32.1,25.7,30.63,North,359,0.0,0.0,77,0.00,,,0.00,WUHU216DAVISVP2,2013-11-30 14:11:00,
2013-11-30 09:16:00,32.4,26.0,30.63,NE,35,0.0,0.0,77,0.00,,,0.00,WUHU216DAVISVP2,2013-11-30 14:16:00,
2013-11-30 09:21:00,32.9,26.5,30.63,ENE,76,0.0,0.0,77,0.00,,,0.00,WUHU216DAVISVP2,2013-11-30 14:21:00,
2013-11-30 09:27:00,33.4,27.0,30.63,North,0,0.0,0.0,77,0.00,,,0.00,WUHU216DAVISVP2,2013-11-30 14:27:00,
2013-11-30 09:32:00,33.7,27.3,30.63,NE,35,0.0,0.0,77,0.00,,,0.00,WUHU216DAVISVP2,2013-11-30 14:32:00,
2013-11-30 09:38:00,34.0,27.0,30.63,NNW,346,0.0,0.0,75,0.00,,,0.00,WUHU216DAVISVP2,2013-11-30 14:38:00,
2013-11-30 09:43:00,34.4,27.3,30.63,NNW,339,0.0,0.0,75,0.00,,,0.00,WUHU216DAVISVP2,2013-11-30 14:43:00,
2013-11-30 09:49:00,34.7,27.6,30.63,North,350,0.0,0.0,75,0.00,,,0.00,WUHU216DAVISVP2,2013-11-30 14:49:00,
2013-11-30 09:54:00,35.0,27.9,30.63,ENE,69,0.0,0.0,75,0.00,,,0.00,WUHU216DAVISVP2,2013-11-30 14:54:00,
2013-11-30 09:59:00,35.3,27.6,30.63,ENE,78,0.0,0.0,73,0.00,,,0.00,WUHU216DAVISVP2,2013-11-30 14:59:00,
2013-11-30 10:04:00,35.8,28.4,30.62,NNW,332,0.0,0.0,74,0.00,,,0.00,WUHU216DAVISVP2,2013-11-30 15:04:00,
2013-11-30 10:09:00,36.0,28.2,30.62,NE,55,0.0,0.0,73,0.00,,,0.00,WUHU216DAVISVP2,2013-11-30 15:09:00,
2013-11-30 10:14:00,36.5,28.4,30.62,North,0,0.0,0.0,72,0.00,,,0.00,WUHU216DAVISVP2,2013-11-30 15:14:00,
2013-11-30 10:19:00,36.6,28.5,30.62,East,95,0.0,0.0,72,0.00,,,0.00,WUHU216DAVISVP2,2013-11-30 15:19:00,
2013-11-30 10:24:00,36.8,28.7,30.62,North,359,0.0,0.0,72,0.00,,,0.00,WUHU216DAVISVP2,2013-11-30 15:24:00,
2013-11-30 10:29:00,37.2,28.7,30.62,North,0,0.0,0.0,71,0.00,,,0.00,WUHU216DAVISVP2,2013-11-30 15:29:00,
2013-11-30 10:34:00,37.6,28.8,30.61,East,97,0.0,0.0,70,0.00,,,0.00,WUHU216DAVISVP2,2013-11-30 15:34:00,
2013-11-30 10:39:00,38.0,29.2,30.61,East,79,0.0,0.0,70,0.00,,,0.00,WUHU216DAVISVP2,2013-11-30 15:39:00,
2013-11-30 10:44:00,38.3,29.1,30.61,ESE,120,0.0,0.0,69,0.00,,,0.00,WUHU216DAVISVP2,2013-11-30 15:44:00,
2013-11-30 10:49:00,38.5,29.3,30.60,NNE,13,0.0,0.0,69,0.00,,,0.00,WUHU216DAVISVP2,2013-11-30 15:49:00,
2013-11-30 10:54:00,38.8,29.2,30.60,East,92,0.0,0.0,68,0.00,,,0.00,WUHU216DAVISVP2,2013-11-30 15:54:00,
2013-11-30 10:59:00,38.8,29.2,30.60,North,0,0.0,0.0,68,0.00,,,0.00,WUHU216DAVISVP2,2013-11-30 15:59:00,
2013-11-30 11:04:00,39.5,30.2,30.59,North,352,0.0,0.0,69,0.00,,,0.00,WUHU216DAVISVP2,2013-11-30 16:04:00,
2013-11-30 11:09:00,39.8,30.2,30.59,NNE,25,0.0,0.0,68,0.00,,,0.00,WUHU216DAVISVP2,2013-11-30 16:09:00,
2013-11-30 11:14:00,40.1,30.1,30.59,NNW,344,0.0,0.0,67,0.00,,,0.00,WUHU216DAVISVP2,2013-11-30 16:14:00,
2013-11-30 11:19:00,40.3,30.3,30.58,North,357,0.0,0.0,67,0.00,,,0.00,WUHU216DAVISVP2,2013-11-30 16:19:00,
2013-11-30 11:24:00,40.9,30.9,30.58,North,350,0.0,0.0,67,0.00,,,0.00,WUHU216DAVISVP2,2013-11-30 16:24:00,
2013-11-30 11:29:00,41.3,30.9,30.58,North,359,0.0,0.0,66,0.00,,,0.00,WUHU216DAVISVP2,2013-11-30 16:29:00,
2013-11-30 11:34:00,41.9,31.5,30.58,NNW,328,0.0,0.0,66,0.00,,,0.00,WUHU216DAVISVP2,2013-11-30 16:34:00,
2013-11-30 11:39:00,42.2,31.7,30.58,ENE,64,0.0,0.0,66,0.00,,,0.00,WUHU216DAVISVP2,2013-11-30 16:39:00,
2013-11-30 11:44:00,42.6,32.1,30.58,North,0,0.0,0.0,66,0.00,,,0.00,WUHU216DAVISVP2,2013-11-30 16:44:00,
2013-11-30 11:49:00,42.8,32.3,30.57,ENE,73,0.0,0.0,66,0.00,,,0.00,WUHU216DAVISVP2,2013-11-30 16:49:00,
2013-11-30 11:54:00,43.1,32.6,30.57,ENE,78,0.0,0.0,66,0.00,,,0.00,WUHU216DAVISVP2,2013-11-30 16:54:00,
2013-11-30 11:59:00,43.1,32.6,30.57,ENE,58,0.0,0.0,66,0.00,,,0.00,WUHU216DAVISVP2,2013-11-30 16:59:00,
2013-11-30 12:04:00,43.5,33.0,30.56,NE,54,0.0,0.0,66,0.00,,,0.00,WUHU216DAVISVP2,2013-11-30 17:04:00,
2013-11-30 12:09:00,44.2,32.9,30.56,North,0,0.0,0.0,64,0.00,,,0.00,WUHU216DAVISVP2,2013-11-30 17:09:00,
2013-11-30 12:14:00,44.5,32.8,30.56,East,92,0.0,0.0,63,0.00,,,0.00,WUHU216DAVISVP2,2013-11-30 17:14:00,
2013-11-30 12:19:00,44.3,32.6,30.55,East,93,0.0,0.0,63,0.00,,,0.00,WUHU216DAVISVP2,2013-11-30 17:19:00,
2013-11-30 12:24:00,44.5,32.7,30.55,East,80,0.0,0.0,63,0.00,,,0.00,WUHU216DAVISVP2,2013-11-30 17:24:00,
2013-11-30 12:29:00,44.5,32.8,30.55,North,349,0.0,0.0,63,0.00,,,0.00,WUHU216DAVISVP2,2013-11-30 17:29:00,
2013-11-30 12:34:00,45.2,33.3,30.54,NNW,347,0.0,0.0,63,0.00,,,0.00,WUHU216DAVISVP2,2013-11-30 17:34:00,
2013-11-30 12:39:00,45.5,32.8,30.54,North,0,0.0,0.0,61,0.00,,,0.00,WUHU216DAVISVP2,2013-11-30 17:39:00,
2013-11-30 12:44:00,45.8,33.1,30.54,NNE,16,0.0,0.0,61,0.00,,,0.00,WUHU216DAVISVP2,2013-11-30 17:44:00,
2013-11-30 12:49:00,45.8,32.8,30.52,North,359,0.0,0.0,60,0.00,,,0.00,WUHU216DAVISVP2,2013-11-30 17:49:00,
2013-11-30 12:54:00,45.1,32.1,30.52,North,0,0.0,0.0,60,0.00,,,0.00,WUHU216DAVISVP2,2013-11-30 17:54:00,
2013-11-30 12:59:00,44.9,32.3,30.52,ENE,71,0.0,0.0,61,0.00,,,0.00,WUHU216DAVISVP2,2013-11-30 17:59:00,
2013-11-30 13:04:00,45.2,32.1,30.52,North,354,0.0,0.0,60,0.00,,,0.00,WUHU216DAVISVP2,2013-11-30 18:04:00,
2013-11-30 13:09:00,45.7,32.7,30.52,North,11,0.0,0.0,60,0.00,,,0.00,WUHU216DAVISVP2,2013-11-30 18:09:00,
2013-11-30 13:14:00,46.0,33.0,30.52,NNE,13,0.0,0.0,60,0.00,,,0.00,WUHU216DAVISVP2,2013-11-30 18:14:00,
2013-11-30 13:19:00,46.2,33.2,30.51,North,353,0.0,0.0,60,0.00,,,0.00,WUHU216DAVISVP2,2013-11-30 18:19:00,
2013-11-30 13:24:00,46.1,32.6,30.51,South,191,0.0,0.0,59,0.00,,,0.00,WUHU216DAVISVP2,2013-11-30 18:24:00,
2013-11-30 13:29:00,45.8,32.3,30.51,NNW,346,0.0,0.0,59,0.00,,,0.00,WUHU216DAVISVP2,2013-11-30 18:29:00,
2013-11-30 13:34:00,46.0,32.5,30.50,NNE,18,0.0,0.0,59,0.00,,,0.00,WUHU216DAVISVP2,2013-11-30 18:34:00,
2013-11-30 13:39:00,46.0,32.5,30.50,NNW,330,0.0,0.0,59,0.00,,,0.00,WUHU216DAVISVP2,2013-11-30 18:39:00,
2013-11-30 13:44:00,46.4,32.8,30.50,East,88,0.0,0.0,59,0.00,,,0.00,WUHU216DAVISVP2,2013-11-30 18:44:00,
2013-11-30 13:49:00,46.5,32.6,30.50,North,354,0.0,0.0,58,0.00,,,0.00,WUHU216DAVISVP2,2013-11-30 18:49:00,
2013-11-30 13:54:00,46.5,32.6,30.50,NNE,28,0.0,0.0,58,0.00,,,0.00,WUHU216DAVISVP2,2013-11-30 18:54:00,
2013-11-30 13:59:00,46.4,32.5,30.50,North,357,0.0,0.0,58,0.00,,,0.00,WUHU216DAVISVP2,2013-11-30 18:59:00,
2013-11-30 14:04:00,46.2,32.3,30.49,East,97,0.0,0.0,58,0.00,,,0.00,WUHU216DAVISVP2,2013-11-30 19:04:00,
2013-11-30 14:09:00,46.5,32.5,30.49,North,0,0.0,0.0,58,0.00,,,0.00,WUHU216DAVISVP2,2013-11-30 19:09:00,
2013-11-30 14:14:00,46.8,32.9,30.49,NNW,339,0.0,0.0,58,0.00,,,0.00,WUHU216DAVISVP2,2013-11-30 19:14:00,
2013-11-30 14:19:00,46.8,32.8,30.48,NNW,336,0.0,0.0,58,0.00,,,0.00,WUHU216DAVISVP2,2013-11-30 19:19:00,
2013-11-30 14:24:00,47.0,32.6,30.48,East,96,0.0,0.0,57,0.00,,,0.00,WUHU216DAVISVP2,2013-11-30 19:24:00,
2013-11-30 14:29:00,46.7,32.8,30.48,North,0,0.0,0.0,58,0.00,,,0.00,WUHU216DAVISVP2,2013-11-30 19:29:00,
2013-11-30 14:34:00,46.7,32.3,30.47,North,0,0.0,0.0,57,0.00,,,0.00,WUHU216DAVISVP2,2013-11-30 19:34:00,
2013-11-30 14:39:00,46.5,32.5,30.47,ENE,62,0.0,0.0,58,0.00,,,0.00,WUHU216DAVISVP2,2013-11-30 19:39:00,
2013-11-30 14:44:00,46.4,32.5,30.47,North,0,0.0,0.0,58,0.00,,,0.00,WUHU216DAVISVP2,2013-11-30 19:44:00,
2013-11-30 14:49:00,46.4,32.5,30.46,North,0,0.0,0.0,58,0.00,,,0.00,WUHU216DAVISVP2,2013-11-30 19:49:00,
2013-11-30 14:54:00,46.2,32.3,30.46,North,1,0.0,0.0,58,0.00,,,0.00,WUHU216DAVISVP2,2013-11-30 19:54:00,
2013-11-30 14:59:00,46.2,32.3,30.46,North,1,0.0,0.0,58,0.00,,,0.00,WUHU216DAVISVP2,2013-11-30 19:59:00,
2013-11-30 15:04:00,46.2,32.3,30.46,North,1,0.0,0.0,58,0.00,,,0.00,WUHU216DAVISVP2,2013-11-30 20:04:00,
2013-11-30 15:09:00,46.1,32.1,30.46,North,1,0.0,0.0,58,0.00,,,0.00,WUHU216DAVISVP2,2013-11-30 20:09:00,
2013-11-30 15:14:00,46.2,32.3,30.46,North,1,0.0,0.0,58,0.00,,,0.00,WUHU216DAVISVP2,2013-11-30 20:14:00,
2013-11-30 15:19:00,46.1,32.2,30.46,East,89,0.0,0.0,58,0.00,,,0.00,WUHU216DAVISVP2,2013-11-30 20:19:00,
2013-11-30 15:24:00,46.1,32.1,30.46,NNW,337,0.0,0.0,58,0.00,,,0.00,WUHU216DAVISVP2,2013-11-30 20:24:00,
2013-11-30 15:29:00,46.0,32.1,30.46,North,0,0.0,0.0,58,0.00,,,0.00,WUHU216DAVISVP2,2013-11-30 20:29:00,
2013-11-30 15:34:00,46.0,32.1,30.46,North,0,0.0,0.0,58,0.00,,,0.00,WUHU216DAVISVP2,2013-11-30 20:34:00,
2013-11-30 15:39:00,45.8,31.9,30.46,North,0,0.0,0.0,58,0.00,,,0.00,WUHU216DAVISVP2,2013-11-30 20:39:00,
2013-11-30 15:44:00,45.8,31.9,30.46,NW,325,0.0,0.0,58,0.00,,,0.00,WUHU216DAVISVP2,2013-11-30 20:44:00,
2013-11-30 15:50:00,45.5,31.6,30.46,NNW,332,0.0,0.0,58,0.00,,,0.00,WUHU216DAVISVP2,2013-11-30 20:50:00,
2013-11-30 15:55:00,45.4,31.5,30.46,NNE,13,0.0,0.0,58,0.00,,,0.00,WUHU216DAVISVP2,2013-11-30 20:55:00,
2013-11-30 16:01:00,45.2,31.8,30.46,NNE,13,0.0,0.0,59,0.00,,,0.00,WUHU216DAVISVP2,2013-11-30 21:01:00,
2013-11-30 16:06:00,44.8,31.4,30.45,North,11,0.0,0.0,59,0.00,,,0.00,WUHU216DAVISVP2,2013-11-30 21:06:00,
2013-11-30 16:11:00,44.6,31.2,30.45,North,11,0.0,0.0,59,0.00,,,0.00,WUHU216DAVISVP2,2013-11-30 21:11:00,
2013-11-30 16:16:00,44.2,30.8,30.45,NNE,13,0.0,0.0,59,0.00,,,0.00,WUHU216DAVISVP2,2013-11-30 21:16:00,
2013-11-30 16:21:00,43.9,31.0,30.45,NNE,13,0.0,0.0,60,0.00,,,0.00,WUHU216DAVISVP2,2013-11-30 21:21:00,
2013-11-30 16:26:00,43.3,30.7,30.45,NNE,13,0.0,0.0,61,0.00,,,0.00,WUHU216DAVISVP2,2013-11-30 21:26:00,
2013-11-30 16:31:00,43.1,30.6,30.45,NNE,13,0.0,0.0,61,0.00,,,0.00,WUHU216DAVISVP2,2013-11-30 21:31:00,
2013-11-30 16:36:00,42.8,30.7,30.45,NNE,13,0.0,0.0,62,0.00,,,0.00,WUHU216DAVISVP2,2013-11-30 21:36:00,
2013-11-30 16:41:00,42.5,30.5,30.45,NNE,13,0.0,0.0,62,0.00,,,0.00,WUHU216DAVISVP2,2013-11-30 21:41:00,
2013-11-30 16:46:00,42.3,30.7,30.45,NNE,13,0.0,0.0,63,0.00,,,0.00,WUHU216DAVISVP2,2013-11-30 21:46:00,
2013-11-30 16:51:00,42.2,30.6,30.44,NNE,13,0.0,0.0,63,0.00,,,0.00,WUHU216DAVISVP2,2013-11-30 21:51:00,
2013-11-30 16:56:00,41.9,30.3,30.44,NNE,13,0.0,0.0,63,0.00,,,0.00,WUHU216DAVISVP2,2013-11-30 21:56:00,
2013-11-30 17:01:00,41.8,30.6,30.44,NNE,13,0.0,0.0,64,0.00,,,0.00,WUHU216DAVISVP2,2013-11-30 22:01:00,
2013-11-30 17:06:00,41.6,30.4,30.44,NNE,13,0.0,0.0,64,0.00,,,0.00,WUHU216DAVISVP2,2013-11-30 22:06:00,
2013-11-30 17:11:00,41.2,30.4,30.44,NNE,13,0.0,0.0,65,0.00,,,0.00,WUHU216DAVISVP2,2013-11-30 22:11:00,
2013-11-30 17:16:00,41.1,30.3,30.44,NNE,13,0.0,0.0,65,0.00,,,0.00,WUHU216DAVISVP2,2013-11-30 22:16:00,
2013-11-30 17:21:00,40.9,30.5,30.43,NNE,13,0.0,0.0,66,0.00,,,0.00,WUHU216DAVISVP2,2013-11-30 22:21:00,
2013-11-30 17:26:00,40.6,30.2,30.43,NNE,13,0.0,0.0,66,0.00,,,0.00,WUHU216DAVISVP2,2013-11-30 22:26:00,
2013-11-30 17:31:00,40.5,30.1,30.43,NNE,13,0.0,0.0,66,0.00,,,0.00,WUHU216DAVISVP2,2013-11-30 22:31:00,
2013-11-30 17:36:00,40.2,29.7,30.43,NNE,13,0.0,0.0,66,0.00,,,0.00,WUHU216DAVISVP2,2013-11-30 22:36:00,
2013-11-30 17:41:00,39.8,29.8,30.43,NNE,13,0.0,0.0,67,0.00,,,0.00,WUHU216DAVISVP2,2013-11-30 22:41:00,
2013-11-30 17:46:00,39.5,29.4,30.43,NNE,13,0.0,0.0,67,0.00,,,0.00,WUHU216DAVISVP2,2013-11-30 22:46:00,
2013-11-30 17:51:00,39.1,29.1,30.43,NNE,13,0.0,0.0,67,0.00,,,0.00,WUHU216DAVISVP2,2013-11-30 22:51:00,
2013-11-30 17:56:00,38.6,29.0,30.43,NNE,13,0.0,0.0,68,0.00,,,0.00,WUHU216DAVISVP2,2013-11-30 22:56:00,
2013-11-30 18:01:00,38.3,28.7,30.43,NNE,13,0.0,0.0,68,0.00,,,0.00,WUHU216DAVISVP2,2013-11-30 23:01:00,
2013-11-30 18:06:00,37.8,28.6,30.42,NNE,13,0.0,0.0,69,0.00,,,0.00,WUHU216DAVISVP2,2013-11-30 23:06:00,
2013-11-30 18:11:00,37.5,28.3,30.42,NNE,13,0.0,0.0,69,0.00,,,0.00,WUHU216DAVISVP2,2013-11-30 23:11:00,
2013-11-30 18:16:00,37.2,28.0,30.42,NNE,13,0.0,0.0,69,0.00,,,0.00,WUHU216DAVISVP2,2013-11-30 23:16:00,
2013-11-30 18:21:00,36.8,27.7,30.42,NNE,13,0.0,0.0,69,0.00,,,0.00,WUHU216DAVISVP2,2013-11-30 23:21:00,
2013-11-30 18:26:00,36.3,27.1,30.42,NNE,13,0.0,0.0,69,0.00,,,0.00,WUHU216DAVISVP2,2013-11-30 23:26:00,
2013-11-30 18:31:00,35.9,27.5,30.42,NNE,13,0.0,0.0,71,0.00,,,0.00,WUHU216DAVISVP2,2013-11-30 23:31:00,
2013-11-30 18:36:00,35.6,27.1,30.42,NNE,13,0.0,0.0,71,0.00,,,0.00,WUHU216DAVISVP2,2013-11-30 23:36:00,
2013-11-30 18:41:00,35.2,26.8,30.42,NNE,13,0.0,0.0,71,0.00,,,0.00,WUHU216DAVISVP2,2013-11-30 23:41:00,
2013-11-30 18:46:00,34.9,26.4,30.42,NNE,13,0.0,0.0,71,0.00,,,0.00,WUHU216DAVISVP2,2013-11-30 23:46:00,
2013-11-30 18:51:00,34.4,26.0,30.42,NNE,13,0.0,0.0,71,0.00,,,0.00,WUHU216DAVISVP2,2013-11-30 23:51:00,
2013-11-30 18:56:00,34.1,25.7,30.42,NNE,13,0.0,0.0,71,0.00,,,0.00,WUHU216DAVISVP2,2013-11-30 23:56:00,
2013-11-30 19:02:00,33.8,25.7,30.42,NNE,13,0.0,0.0,72,0.00,,,0.00,WUHU216DAVISVP2,2013-12-01 00:02:00,
2013-11-30 19:07:00,33.4,25.3,30.43,NNE,13,0.0,0.0,72,0.00,,,0.00,WUHU216DAVISVP2,2013-12-01 00:07:00,
2013-11-30 19:12:00,33.1,25.1,30.43,NNE,13,0.0,0.0,72,0.00,,,0.00,WUHU216DAVISVP2,2013-12-01 00:12:00,
2013-11-30 19:17:00,32.9,24.9,30.43,NNE,13,0.0,0.0,72,0.00,,,0.00,WUHU216DAVISVP2,2013-12-01 00:17:00,
2013-11-30 19:23:00,32.7,24.7,30.42,NNE,13,0.0,0.0,72,0.00,,,0.00,WUHU216DAVISVP2,2013-12-01 00:23:00,
2013-11-30 19:28:00,32.7,25.4,30.42,NNE,13,0.0,0.0,74,0.00,,,0.00,WUHU216DAVISVP2,2013-12-01 00:28:00,
2013-11-30 19:33:00,32.2,24.9,30.42,NNE,13,0.0,0.0,74,0.00,,,0.00,WUHU216DAVISVP2,2013-12-01 00:33:00,
2013-11-30 19:38:00,32.1,24.7,30.42,NNE,13,0.0,0.0,74,0.00,,,0.00,WUHU216DAVISVP2,2013-12-01 00:38:00,
2013-11-30 19:43:00,32.1,24.7,30.42,NNE,13,0.0,0.0,74,0.00,,,0.00,WUHU216DAVISVP2,2013-12-01 00:43:00,
2013-11-30 19:48:00,31.9,25.2,30.42,NNE,13,0.0,0.0,76,0.00,,,0.00,WUHU216DAVISVP2,2013-12-01 00:48:00,
2013-11-30 19:53:00,31.9,25.5,30.42,NNE,13,0.0,0.0,77,0.00,,,0.00,WUHU216DAVISVP2,2013-12-01 00:53:00,
2013-11-30 19:58:00,31.8,25.4,30.42,NNE,13,0.0,0.0,77,0.00,,,0.00,WUHU216DAVISVP2,2013-12-01 00:58:00,
2013-11-30 20:03:00,31.6,25.5,30.42,NNE,13,0.0,0.0,78,0.00,,,0.00,WUHU216DAVISVP2,2013-12-01 01:03:00,
2013-11-30 20:08:00,31.6,25.8,30.42,NNE,13,0.0,0.0,79,0.00,,,0.00,WUHU216DAVISVP2,2013-12-01 01:08:00,
2013-11-30 20:13:00,31.6,25.8,30.42,NNE,13,0.0,0.0,79,0.00,,,0.00,WUHU216DAVISVP2,2013-12-01 01:13:00,
2013-11-30 20:18:00,31.5,25.8,30.42,NNE,13,0.0,0.0,79,0.00,,,0.00,WUHU216DAVISVP2,2013-12-01 01:18:00,
2013-11-30 20:23:00,31.5,25.8,30.41,NNE,13,0.0,0.0,79,0.00,,,0.00,WUHU216DAVISVP2,2013-12-01 01:23:00,
2013-11-30 20:28:00,31.5,25.7,30.41,NNE,13,0.0,0.0,79,0.00,,,0.00,WUHU216DAVISVP2,2013-12-01 01:28:00,
2013-11-30 20:33:00,31.3,25.6,30.41,NNE,13,0.0,0.0,79,0.00,,,0.00,WUHU216DAVISVP2,2013-12-01 01:33:00,
2013-11-30 20:38:00,31.2,25.8,30.41,NNE,13,0.0,0.0,80,0.00,,,0.00,WUHU216DAVISVP2,2013-12-01 01:38:00,
2013-11-30 20:43:00,31.0,25.3,30.41,NNE,13,0.0,0.0,79,0.00,,,0.00,WUHU216DAVISVP2,2013-12-01 01:43:00,
2013-11-30 20:48:00,30.9,25.2,30.41,NNE,13,0.0,0.0,79,0.00,,,0.00,WUHU216DAVISVP2,2013-12-01 01:48:00,
2013-11-30 20:53:00,30.9,25.5,30.41,NNE,13,0.0,0.0,80,0.00,,,0.00,WUHU216DAVISVP2,2013-12-01 01:53:00,
2013-11-30 20:58:00,30.9,25.5,30.41,NNE,13,0.0,0.0,80,0.00,,,0.00,WUHU216DAVISVP2,2013-12-01 01:58:00,
2013-11-30 21:03:00,30.7,25.3,30.41,NNE,13,0.0,0.0,80,0.00,,,0.00,WUHU216DAVISVP2,2013-12-01 02:03:00,
2013-11-30 21:08:00,30.6,25.2,30.40,NNE,13,0.0,0.0,80,0.00,,,0.00,WUHU216DAVISVP2,2013-12-01 02:08:00,
2013-11-30 21:13:00,30.6,25.5,30.40,NNE,13,0.0,0.0,81,0.00,,,0.00,WUHU216DAVISVP2,2013-12-01 02:13:00,
2013-11-30 21:18:00,30.6,25.5,30.40,NNE,13,0.0,0.0,81,0.00,,,0.00,WUHU216DAVISVP2,2013-12-01 02:18:00,
2013-11-30 21:23:00,30.4,25.3,30.40,NNE,13,0.0,0.0,81,0.00,,,0.00,WUHU216DAVISVP2,2013-12-01 02:23:00,
2013-11-30 21:28:00,30.4,25.3,30.40,NNE,13,0.0,0.0,81,0.00,,,0.00,WUHU216DAVISVP2,2013-12-01 02:28:00,
2013-11-30 21:33:00,30.6,25.5,30.40,NNE,13,0.0,0.0,81,0.00,,,0.00,WUHU216DAVISVP2,2013-12-01 02:33:00,
2013-11-30 21:38:00,30.6,25.5,30.39,NNE,13,0.0,0.0,81,0.00,,,0.00,WUHU216DAVISVP2,2013-12-01 02:38:00,
2013-11-30 21:43:00,30.4,25.3,30.39,NNE,13,0.0,0.0,81,0.00,,,0.00,WUHU216DAVISVP2,2013-12-01 02:43:00,
2013-11-30 21:48:00,30.3,25.2,30.39,NNE,13,0.0,0.0,81,0.00,,,0.00,WUHU216DAVISVP2,2013-12-01 02:48:00,
2013-11-30 21:53:00,30.3,25.2,30.39,NNE,13,0.0,0.0,81,0.00,,,0.00,WUHU216DAVISVP2,2013-12-01 02:53:00,
2013-11-30 21:58:00,30.1,25.3,30.39,NNE,13,0.0,0.0,82,0.00,,,0.00,WUHU216DAVISVP2,2013-12-01 02:58:00,
2013-11-30 22:03:00,30.0,24.9,30.39,NNE,13,0.0,0.0,81,0.00,,,0.00,WUHU216DAVISVP2,2013-12-01 03:03:00,
2013-11-30 22:08:00,29.8,25.0,30.39,NNE,13,0.0,0.0,82,0.00,,,0.00,WUHU216DAVISVP2,2013-12-01 03:08:00,
2013-11-30 22:13:00,29.8,25.0,30.39,NNE,13,0.0,0.0,82,0.00,,,0.00,WUHU216DAVISVP2,2013-12-01 03:13:00,
2013-11-30 22:19:00,29.8,25.0,30.39,NNE,13,0.0,0.0,82,0.00,,,0.00,WUHU216DAVISVP2,2013-12-01 03:19:00,
2013-11-30 22:24:00,29.7,24.9,30.39,NNE,13,0.0,0.0,82,0.00,,,0.00,WUHU216DAVISVP2,2013-12-01 03:24:00,
2013-11-30 22:29:00,29.7,24.9,30.39,NNE,13,0.0,0.0,82,0.00,,,0.00,WUHU216DAVISVP2,2013-12-01 03:29:00,
2013-11-30 22:34:00,29.5,24.7,30.39,NNE,13,0.0,0.0,82,0.00,,,0.00,WUHU216DAVISVP2,2013-12-01 03:34:00,
2013-11-30 22:39:00,29.5,24.7,30.39,NNE,13,0.0,0.0,82,0.00,,,0.00,WUHU216DAVISVP2,2013-12-01 03:39:00,
2013-11-30 22:44:00,29.8,25.3,30.39,NNE,13,0.0,0.0,83,0.00,,,0.00,WUHU216DAVISVP2,2013-12-01 03:44:00,
2013-11-30 22:49:00,29.8,25.3,30.38,NNE,13,0.0,0.0,83,0.00,,,0.00,WUHU216DAVISVP2,2013-12-01 03:49:00,
2013-11-30 22:54:00,30.0,25.4,30.38,NNE,13,0.0,0.0,83,0.00,,,0.00,WUHU216DAVISVP2,2013-12-01 03:54:00,
2013-11-30 22:59:00,30.1,25.5,30.38,NNE,13,0.0,0.0,83,0.00,,,0.00,WUHU216DAVISVP2,2013-12-01 03:59:00,
2013-11-30 23:04:00,30.1,25.8,30.37,NNE,13,0.0,0.0,84,0.00,,,0.00,WUHU216DAVISVP2,2013-12-01 04:04:00,
2013-11-30 23:10:00,30.1,25.5,30.37,NNE,13,0.0,0.0,83,0.00,,,0.00,WUHU216DAVISVP2,2013-12-01 04:10:00,
2013-11-30 23:15:00,30.1,25.5,30.37,NNE,13,0.0,0.0,83,0.00,,,0.00,WUHU216DAVISVP2,2013-12-01 04:15:00,
2013-11-30 23:21:00,30.1,25.6,30.36,NNE,13,0.0,0.0,83,0.00,,,0.00,WUHU216DAVISVP2,2013-12-01 04:21:00,
2013-11-30 23:26:00,30.1,25.6,30.36,NNE,13,0.0,0.0,83,0.00,,,0.00,WUHU216DAVISVP2,2013-12-01 04:26:00,
2013-11-30 23:31:00,30.1,25.8,30.36,NNE,13,0.0,0.0,84,0.00,,,0.00,WUHU216DAVISVP2,2013-12-01 04:31:00,
2013-11-30 23:36:00,30.3,26.0,30.36,NNE,13,0.0,0.0,84,0.00,,,0.00,WUHU216DAVISVP2,2013-12-01 04:36:00,
2013-11-30 23:41:00,30.1,25.8,30.36,NNE,13,0.0,0.0,84,0.00,,,0.00,WUHU216DAVISVP2,2013-12-01 04:41:00,
2013-11-30 23:46:00,30.1,25.8,30.36,NNE,13,0.0,0.0,84,0.00,,,0.00,WUHU216DAVISVP2,2013-12-01 04:46:00,
2013-11-30 23:51:00,30.1,25.8,30.35,NNE,13,0.0,0.0,84,0.00,,,0.00,WUHU216DAVISVP2,2013-12-01 04:51:00,
2013-11-30 23:56:00,30.1,25.8,30.35,NNE,13,0.0,0.0,84,0.00,,,0.00,WUHU216DAVISVP2,2013-12-01 04:56:00,